Terminal Aerodrome Forecast
Issued by NWS

Home | Current Version | Previous Version | Text Only | Print | Product List | Glossary On
Versions: 1 2 3 4 5 6 7 8 9 10 11 12 13 14 15
000
FTUS46 KMTR 301120
TAFOAK
TAF
KOAK 301120Z 3012/3118 29010KT P6SM OVC005
     FM301700 28009KT 6SM HZ SCT009
     FM301900 29014KT P6SM FEW011 SCT100
     FM310300 28010KT 5SM HZ FEW009 SCT100
     FM310900 28008KT P6SM SCT010=

USA.gov is the U.S. government's official web portal to all federal, state and local government web resources and services.